Aguas Claras Airport


Codes: SKOC/OCV
Name: Aguas Claras Airport
City: Ocana
Country: Colombia
Elevation: 3850 ft.

Photos at Aguas Claras Airport


   Photos courtesy of SpottingLog. You can add your own sightings and photos by signing up for a free trial today.



No photos found.

Weather at Aguas Claras Airport


Time (UTC)DescriptionTempratureWindCloud coverageVisibilityPressureHumidity
15-Apr-2024 18:00Overcast Clouds28°C2 mph, NW93%10000m1010hPa44%
15-Apr-2024 21:00Light Rain27°C0 mph, E97%10000m1008hPa49%
16-Apr-2024 00:00Light Rain24°C4 mph, NE100%10000m1010hPa62%
16-Apr-2024 03:00Light Rain21°C4 mph, NE48%10000m1012hPa73%
16-Apr-2024 06:00Broken Clouds19°C4 mph, NE51%10000m1011hPa83%
16-Apr-2024 09:00Broken Clouds19°C4 mph, E56%10000m1011hPa86%
16-Apr-2024 12:00Broken Clouds21°C4 mph, E78%10000m1013hPa77%
16-Apr-2024 15:00Overcast Clouds26°C0 mph, W100%10000m1012hPa55%
16-Apr-2024 18:00Light Rain28°C0 mph, NW100%10000m1009hPa50%
16-Apr-2024 21:00Light Rain26°C2 mph, NE100%10000m1007hPa59%
17-Apr-2024 00:00Light Rain22°C4 mph, NE100%10000m1009hPa74%
17-Apr-2024 03:00Overcast Clouds21°C2 mph, NE93%10000m1012hPa77%
17-Apr-2024 06:00Overcast Clouds20°C2 mph, NE87%10000m1011hPa84%
17-Apr-2024 09:00Overcast Clouds19°C4 mph, NE99%10000m1011hPa88%
17-Apr-2024 12:00Overcast Clouds21°C2 mph, E100%10000m1012hPa79%
17-Apr-2024 15:00Overcast Clouds27°C2 mph, SW98%10000m1012hPa54%
17-Apr-2024 18:00Moderate Rain25°C4 mph, NW98%10000m1009hPa62%
17-Apr-2024 21:00Moderate Rain24°C2 mph, N99%10000m1008hPa73%
18-Apr-2024 00:00Moderate Rain20°C4 mph, NE99%10000m1010hPa87%
18-Apr-2024 03:00Overcast Clouds19°C7 mph, E98%10000m1013hPa92%
18-Apr-2024 06:00Moderate Rain19°C4 mph, E99%7080m1011hPa94%
18-Apr-2024 09:00Light Rain19°C2 mph, E100%10000m1011hPa92%
18-Apr-2024 12:00Light Rain19°C2 mph, E100%10000m1013hPa89%
18-Apr-2024 15:00Overcast Clouds23°C4 mph, SW100%10000m1013hPa68%
18-Apr-2024 18:00Light Rain22°C4 mph, SW100%10000m1012hPa81%
18-Apr-2024 21:00Light Rain21°C4 mph, SW100%6143m1011hPa86%
19-Apr-2024 00:00Light Rain19°C2 mph, N100%0m1013hPa99%
19-Apr-2024 03:00Light Rain18°C2 mph, SW100%10000m1015hPa97%
19-Apr-2024 06:00Light Rain18°C0 mph, SW100%10000m1014hPa94%
19-Apr-2024 09:00Light Rain18°C0 mph, NE100%10000m1013hPa94%
19-Apr-2024 12:00Light Rain19°C2 mph, SW100%10000m1015hPa89%
19-Apr-2024 15:00Light Rain22°C2 mph, SW100%10000m1015hPa71%
19-Apr-2024 18:00Light Rain25°C4 mph, W100%10000m1012hPa61%
19-Apr-2024 21:00Light Rain23°C2 mph, W100%10000m1011hPa73%
20-Apr-2024 00:00Light Rain19°C0 mph, NE97%10000m1013hPa91%
20-Apr-2024 03:00Light Rain19°C2 mph, NE100%10000m1015hPa90%
20-Apr-2024 06:00Light Rain18°C0 mph, SE100%10000m1014hPa87%
20-Apr-2024 09:00Light Rain18°C2 mph, S100%10000m1014hPa88%
20-Apr-2024 12:00Light Rain18°C2 mph, SW100%10000m1016hPa93%
20-Apr-2024 15:00Light Rain23°C2 mph, W100%10000m1015hPa67%